Airfield :
LOGIN :

Register | Disclaimer

   EN    FR    IT 

 










Legend :    VFR   Marginal VFR   IFR   Intensive IFR   Very Intensive IFR
Visi :
Ceiling :
>= 8 km
>= 3000ft
5 to 8 km
1000 to 3000 ft
1500m to 5 km
500 to 1000 ft
800 to 1500m
200 to 500 ft
< 800m
< 200 ft
Symbols :   Thunderstorms  Fog  Heavy snow  Heavy precipitations  Wind > 20 kt
SIGMETs :     Misc.  Thunderstorms  Icing  Turbulence  Mountain Waves  Volcanic Ashes







- Airport Elevation : 1276 ft
- IATA code : STR


EDDS - Stuttgart

CURRENT METAR :
  • 181350Z 25005KT 200V300 CAVOK 29/10 Q1016 NOSIG

EXPIRED METARs :
  • 181320Z 22004KT 140V280 CAVOK 29/10 Q1016 NOSIG
  • 181250Z VRB04KT CAVOK 29/11 Q1017 NOSIG
  • 181220Z 21005KT 110V270 CAVOK 28/09 Q1017 NOSIG
  • 181150Z 23006KT 190V290 CAVOK 28/12 Q1017 NOSIG
  • 181120Z 22004KT 130V280 CAVOK 28/13 Q1017 NOSIG

TAF TAF EDDS
Valid from the 18 at 12:00 until the 19 at 12:00 UTC


181100Z 1812/1912 23005KT CAVOK
BECMG 1817/1820 VRB03KT
PROB30
TEMPO 1818/1824 TSRA BKN040CB
No reported NOTAMs for that airfield.



MET'MAP, your aeronautical weather chart ! - Copyright ORBIFLY December 2007 - Disclaimer

ORBIFLY MET'MAP TEAM :

Programming & Development : Alexandra Zaïnal
Concept & Development : Baudouin d'Aumeries
Co-Development & Prog : Marc-Olivier Méhu
Technical & hardware support : Manuel Goepfert

Contact : metmap@orbifly.com




SOURCES & CREDITS :

   NOAA